createdAt,value
2022-12-19T00:00:15.408Z,6.40
2022-12-19T00:02:43.649Z,8.23
2022-12-19T00:05:13.327Z,7.87
2022-12-19T00:07:40.895Z,9.50
2022-12-19T00:10:09.757Z,6.33
2022-12-19T00:12:37.287Z,6.50
2022-12-19T00:15:05.464Z,7.53
2022-12-19T00:17:35.337Z,7.30
2022-12-19T00:20:05.552Z,6.50
2022-12-19T00:22:33.079Z,7.20
2022-12-19T00:25:00.600Z,6.57
2022-12-19T00:27:29.137Z,7.20
2022-12-19T00:29:59.412Z,7.73
2022-12-19T00:32:26.967Z,6.67
2022-12-19T00:34:55.855Z,6.43
2022-12-19T00:37:25.418Z,9.30
2022-12-19T00:39:52.948Z,6.90
2022-12-19T00:42:20.659Z,7.47
2022-12-19T00:44:49.549Z,7.07
2022-12-19T00:47:17.107Z,9.17
2022-12-19T00:49:44.661Z,7.23
2022-12-19T00:52:14.799Z,6.73
2022-12-19T00:54:42.392Z,7.33
2022-12-19T00:57:10.002Z,7.77
2022-12-19T00:59:37.574Z,7.90
2022-12-19T01:02:05.262Z,8.63
2022-12-19T01:04:36.900Z,6.77
2022-12-19T01:07:11.485Z,6.80
2022-12-19T01:09:40.642Z,7.40
2022-12-19T01:12:30.530Z,7.57
2022-12-19T01:15:04.536Z,8.40
2022-12-19T01:17:34.626Z,6.20
2022-12-19T01:20:13.867Z,8.17
2022-12-19T01:22:41.504Z,8.70
2022-12-19T01:25:10.735Z,7.10
2022-12-19T01:27:40.044Z,6.10
2022-12-19T01:30:08.920Z,7.30
2022-12-19T01:32:37.400Z,7.17
2022-12-19T01:35:05.500Z,8.10
2022-12-19T01:37:33.157Z,8.57
2022-12-19T01:40:00.666Z,8.90
2022-12-19T01:42:36.808Z,8.07
2022-12-19T01:45:20.173Z,7.83
2022-12-19T01:47:53.617Z,7.13
2022-12-19T01:50:27.929Z,8.17
2022-12-19T01:52:56.335Z,7.80
2022-12-19T01:55:24.031Z,6.20
2022-12-19T01:57:53.325Z,8.00
2022-12-19T02:00:21.084Z,5.80
2022-12-19T02:02:55.045Z,8.00
2022-12-19T02:05:22.741Z,7.93
2022-12-19T02:07:51.033Z,8.20
2022-12-19T02:10:18.712Z,8.10
2022-12-19T02:12:47.102Z,9.07
2022-12-19T02:15:17.749Z,8.17
2022-12-19T02:17:58.536Z,7.70
2022-12-19T02:20:59.690Z,8.27
2022-12-19T02:24:03.054Z,7.50
2022-12-19T02:26:49.107Z,9.00
2022-12-19T02:29:40.941Z,7.43
2022-12-19T02:32:16.787Z,7.70
2022-12-19T02:34:54.676Z,9.00
2022-12-19T02:37:25.953Z,7.40
2022-12-19T02:39:59.742Z,8.40
2022-12-19T02:42:32.056Z,8.17
2022-12-19T02:45:04.100Z,8.43
2022-12-19T02:47:35.145Z,10.00
2022-12-19T02:50:04.383Z,8.50
2022-12-19T02:52:46.685Z,9.00
2022-12-19T02:55:18.301Z,8.23
2022-12-19T02:58:06.813Z,8.73
2022-12-19T03:00:42.237Z,9.47
2022-12-19T03:03:16.907Z,8.70
2022-12-19T03:05:53.344Z,8.93
2022-12-19T03:08:26.113Z,7.80
2022-12-19T03:10:59.870Z,8.90
2022-12-19T03:13:33.029Z,8.43
2022-12-19T03:16:04.275Z,10.03
2022-12-19T03:18:35.106Z,7.90
2022-12-19T03:21:09.807Z,8.30
2022-12-19T03:23:38.944Z,8.67
2022-12-19T03:26:10.305Z,8.33
2022-12-19T03:28:42.268Z,8.07
2022-12-19T03:31:12.020Z,8.43
2022-12-19T03:33:42.939Z,8.03
2022-12-19T03:36:16.893Z,9.10
2022-12-19T03:38:46.222Z,8.87
2022-12-19T03:41:16.727Z,8.80
2022-12-19T03:43:45.721Z,9.50
2022-12-19T03:46:20.691Z,7.20
2022-12-19T03:48:51.948Z,7.80
2022-12-19T03:51:32.675Z,7.93
2022-12-19T03:54:03.056Z,8.43
2022-12-19T03:56:38.317Z,8.23
2022-12-19T03:59:09.922Z,8.90
2022-12-19T04:01:38.530Z,7.63
2022-12-19T04:04:12.583Z,8.60
2022-12-19T04:06:42.830Z,8.50
2022-12-19T04:09:11.262Z,8.90
2022-12-19T04:11:42.956Z,8.47
2022-12-19T04:14:17.335Z,8.13
2022-12-19T04:16:50.783Z,8.30
2022-12-19T04:19:25.981Z,9.17
2022-12-19T04:22:01.026Z,9.40
2022-12-19T04:24:34.260Z,7.57
2022-12-19T04:27:04.595Z,8.20
2022-12-19T04:29:35.365Z,9.07
2022-12-19T04:32:04.692Z,9.63
2022-12-19T04:34:37.895Z,9.10
2022-12-19T04:37:09.713Z,8.30
2022-12-19T04:39:37.321Z,8.97
2022-12-19T04:42:05.124Z,8.33
2022-12-19T04:44:32.690Z,7.93
2022-12-19T04:47:00.289Z,8.17
2022-12-19T04:49:27.840Z,7.90
2022-12-19T04:51:56.723Z,7.77
2022-12-19T04:54:24.265Z,9.03
2022-12-19T04:56:53.729Z,7.80
2022-12-19T04:59:21.376Z,8.23
2022-12-19T05:01:49.056Z,8.57
2022-12-19T05:04:16.781Z,8.30
2022-12-19T05:06:44.396Z,7.10
2022-12-19T05:09:13.469Z,8.80
2022-12-19T05:11:41.047Z,8.60
2022-12-19T05:14:08.660Z,8.70
2022-12-19T05:16:36.286Z,10.60
2022-12-19T05:19:04.025Z,8.97
2022-12-19T05:21:31.567Z,9.47
2022-12-19T05:23:59.145Z,8.67
2022-12-19T05:26:28.048Z,8.30
2022-12-19T05:28:55.776Z,9.73
2022-12-19T05:31:23.459Z,9.90
2022-12-19T05:33:51.200Z,8.20
2022-12-19T05:36:20.103Z,8.20
2022-12-19T05:38:48.028Z,9.10
2022-12-19T05:41:17.639Z,7.70
2022-12-19T05:43:50.522Z,8.00
2022-12-19T05:46:18.578Z,9.17
2022-12-19T05:48:46.359Z,9.67
2022-12-19T05:51:14.227Z,9.00
2022-12-19T05:53:42.931Z,9.30
2022-12-19T05:56:13.771Z,8.60
2022-12-19T05:58:42.642Z,9.93
2022-12-19T06:01:14.344Z,8.67
2022-12-19T06:03:42.219Z,9.03
2022-12-19T06:06:12.442Z,8.20
2022-12-19T06:08:40.339Z,9.80
2022-12-19T06:11:10.013Z,7.90
2022-12-19T06:13:39.181Z,8.70
2022-12-19T06:16:11.207Z,9.47
2022-12-19T06:18:44.570Z,7.50
2022-12-19T06:21:15.559Z,8.40
2022-12-19T06:23:44.476Z,8.70
2022-12-19T06:26:19.019Z,8.90
2022-12-19T06:28:48.322Z,9.17
2022-12-19T06:31:16.341Z,7.67
2022-12-19T06:33:46.012Z,8.67
2022-12-19T06:36:17.525Z,8.90
2022-12-19T06:38:45.341Z,8.87
2022-12-19T06:41:31.632Z,9.23
2022-12-19T06:44:00.128Z,9.17
2022-12-19T06:46:28.456Z,7.70
2022-12-19T06:48:57.433Z,8.27
2022-12-19T06:51:25.176Z,11.30
2022-12-19T06:53:53.619Z,11.00
2022-12-19T06:56:21.228Z,9.00
2022-12-19T06:58:49.694Z,9.20
2022-12-19T07:01:18.926Z,8.53
2022-12-19T07:03:48.472Z,8.90
2022-12-19T07:06:17.492Z,8.50
2022-12-19T07:08:45.073Z,9.80
2022-12-19T07:11:12.811Z,10.57
2022-12-19T07:13:40.405Z,8.70
2022-12-19T07:16:09.152Z,9.60
2022-12-19T07:18:41.732Z,11.57
2022-12-19T07:21:11.978Z,9.37
2022-12-19T07:23:41.825Z,9.50
2022-12-19T07:26:09.567Z,9.57
2022-12-19T07:28:37.797Z,8.63
2022-12-19T07:31:05.651Z,9.10
2022-12-19T07:33:33.683Z,9.20
2022-12-19T07:36:01.630Z,9.83
2022-12-19T07:38:29.303Z,9.20
2022-12-19T07:41:01.820Z,10.77
2022-12-19T07:43:29.511Z,9.53
2022-12-19T07:45:57.906Z,8.90
2022-12-19T07:48:25.510Z,9.77
2022-12-19T07:50:53.101Z,10.60
2022-12-19T07:53:20.996Z,9.53
2022-12-19T07:55:51.413Z,11.70
2022-12-19T07:58:20.888Z,9.70
2022-12-19T08:00:55.388Z,9.00
2022-12-19T08:03:23.196Z,11.73
2022-12-19T08:05:52.208Z,9.73
2022-12-19T08:08:20.515Z,9.30
2022-12-19T08:10:48.097Z,13.40
2022-12-19T08:13:15.683Z,12.47
2022-12-19T08:15:44.717Z,11.27
2022-12-19T08:18:12.396Z,11.30
2022-12-19T08:20:40.003Z,9.77
2022-12-19T08:23:07.570Z,12.90
2022-12-19T08:25:35.150Z,10.50
2022-12-19T08:28:02.759Z,8.97
2022-12-19T08:30:30.350Z,9.83
2022-12-19T08:32:59.325Z,10.67
2022-12-19T08:35:26.882Z,9.90
2022-12-19T08:37:54.432Z,10.87
2022-12-19T08:40:23.189Z,10.20
2022-12-19T08:42:51.066Z,11.17
2022-12-19T08:45:19.175Z,10.70
2022-12-19T08:47:46.759Z,10.43
2022-12-19T08:50:15.707Z,10.77
2022-12-19T08:52:44.025Z,12.07
2022-12-19T08:55:11.614Z,10.90
2022-12-19T08:57:39.326Z,9.30
2022-12-19T09:00:09.112Z,10.53
2022-12-19T09:02:37.726Z,10.70
2022-12-19T09:06:03.443Z,11.43
2022-12-19T09:07:55.681Z,10.20
2022-12-19T09:10:23.500Z,10.53
2022-12-19T09:12:56.208Z,11.43
2022-12-19T09:15:25.653Z,11.50
2022-12-19T09:17:53.223Z,12.03
2022-12-19T09:20:23.429Z,13.27
2022-12-19T09:22:51.478Z,10.13
2022-12-19T09:25:20.384Z,11.33
2022-12-19T09:28:25.944Z,9.40
2022-12-19T09:30:35.655Z,9.87
2022-12-19T09:33:03.267Z,11.30
2022-12-19T09:35:30.926Z,10.10
2022-12-19T09:38:00.552Z,11.17
2022-12-19T09:40:36.288Z,11.17
2022-12-19T09:43:14.633Z,10.80
2022-12-19T09:45:54.687Z,13.10
2022-12-19T09:48:24.578Z,10.03
2022-12-19T09:51:10.210Z,10.50
2022-12-19T09:53:54.296Z,10.30
2022-12-19T09:56:27.666Z,10.87
2022-12-19T09:59:01.947Z,10.00
2022-12-19T10:01:36.420Z,9.33
2022-12-19T10:04:11.135Z,10.23
2022-12-19T10:07:22.307Z,8.83
2022-12-19T10:11:58.907Z,9.07
2022-12-19T10:12:51.147Z,8.37
2022-12-19T10:15:29.014Z,8.60
2022-12-19T10:18:15.412Z,8.50
2022-12-19T10:20:51.548Z,9.67
2022-12-19T10:23:42.977Z,9.33
2022-12-19T10:26:16.718Z,8.23
2022-12-19T10:28:59.127Z,9.90
2022-12-19T10:31:35.198Z,8.17
2022-12-19T10:34:15.268Z,11.10
2022-12-19T10:39:43.098Z,8.63
2022-12-19T10:42:16.757Z,8.40
2022-12-19T10:44:48.134Z,8.37
2022-12-19T10:47:17.775Z,8.50
2022-12-19T10:49:45.396Z,9.00
2022-12-19T10:52:14.111Z,9.40
2022-12-19T10:54:43.672Z,9.63
2022-12-19T10:57:25.521Z,10.10
2022-12-19T10:59:59.711Z,9.97
2022-12-19T11:02:40.627Z,9.10
2022-12-19T11:05:24.285Z,9.33
2022-12-19T11:08:03.301Z,9.93
2022-12-19T11:12:26.352Z,10.63
2022-12-19T11:19:22.329Z,10.90
2022-12-19T11:23:42.481Z,11.10
2022-12-19T11:27:18.806Z,10.70
2022-12-19T11:29:26.455Z,11.33
2022-12-19T11:29:40.717Z,9.83
2022-12-19T11:30:35.950Z,10.23
2022-12-19T11:31:26.077Z,10.50
2022-12-19T11:33:55.071Z,11.30
2022-12-19T11:36:31.525Z,10.47
2022-12-19T11:39:00.812Z,10.50
2022-12-19T11:41:34.513Z,9.40
2022-12-19T11:44:08.530Z,9.23
2022-12-19T11:46:41.273Z,10.17
2022-12-19T11:49:24.381Z,11.37
2022-12-19T11:51:57.365Z,10.87
2022-12-19T11:54:29.837Z,9.87
2022-12-19T11:56:57.931Z,11.87
2022-12-19T11:59:31.533Z,13.40
2022-12-19T12:02:25.271Z,12.27
2022-12-19T12:05:06.142Z,11.47
2022-12-19T12:09:18.265Z,13.00
2022-12-19T12:17:54.187Z,11.80
2022-12-19T12:21:24.987Z,11.83
2022-12-19T12:30:14.670Z,10.50
2022-12-19T12:31:21.495Z,11.67
2022-12-19T12:31:40.563Z,11.23
2022-12-19T12:31:50.627Z,12.97
2022-12-19T12:31:57.749Z,12.23
2022-12-19T12:32:02.756Z,13.20
2022-12-19T12:35:55.106Z,13.00
2022-12-19T12:39:54.910Z,13.90
2022-12-19T12:42:33.815Z,11.77
2022-12-19T12:45:09.797Z,12.17
2022-12-19T12:47:37.367Z,12.17
2022-12-19T12:50:08.678Z,12.83
2022-12-19T12:52:41.934Z,12.30
2022-12-19T12:55:21.595Z,13.97
2022-12-19T12:57:49.188Z,11.67
2022-12-19T13:00:24.456Z,13.13
2022-12-19T13:02:57.090Z,12.37
2022-12-19T13:05:35.798Z,10.47
2022-12-19T13:08:31.981Z,12.77
2022-12-19T13:11:01.572Z,11.63
2022-12-19T13:13:51.370Z,11.40
2022-12-19T13:16:51.105Z,12.47
2022-12-19T13:19:27.545Z,12.97
2022-12-19T13:22:23.105Z,11.40
2022-12-19T13:24:55.034Z,12.27
2022-12-19T13:27:38.529Z,12.57
2022-12-19T13:30:19.077Z,12.87
2022-12-19T13:33:10.128Z,12.57
2022-12-19T13:35:57.638Z,12.83
2022-12-19T13:39:57.007Z,12.90
2022-12-19T13:41:47.057Z,12.90
2022-12-19T13:44:15.096Z,11.00
2022-12-19T13:46:44.661Z,11.50
2022-12-19T13:49:16.044Z,10.43
2022-12-19T13:51:47.854Z,13.00
2022-12-19T13:54:20.358Z,10.70
2022-12-19T13:56:49.379Z,10.90
2022-12-19T13:59:17.559Z,11.93
2022-12-19T14:01:45.314Z,11.20
2022-12-19T14:04:26.488Z,10.30
2022-12-19T14:06:59.454Z,11.20
2022-12-19T14:11:33.577Z,11.80
2022-12-19T14:13:49.177Z,11.50
2022-12-19T14:15:30.474Z,12.70
2022-12-19T14:18:41.649Z,11.37
2022-12-19T14:22:05.444Z,11.40
2022-12-19T14:23:42.964Z,11.33
2022-12-19T14:28:24.151Z,9.93
2022-12-19T14:29:08.662Z,9.90
2022-12-19T14:31:38.787Z,12.00
2022-12-19T14:35:03.927Z,10.73
2022-12-19T14:37:31.884Z,10.77
2022-12-19T14:40:24.725Z,10.47
2022-12-19T14:44:00.200Z,11.27
2022-12-19T14:54:02.602Z,10.33
2022-12-19T14:54:09.465Z,10.63
2022-12-19T14:54:27.812Z,10.57
2022-12-19T14:56:03.814Z,10.43
2022-12-19T14:58:52.136Z,11.67
2022-12-19T15:01:25.488Z,11.17
2022-12-19T15:04:48.203Z,10.00
2022-12-19T15:07:09.739Z,12.80
2022-12-19T15:11:07.283Z,11.50
2022-12-19T15:14:49.012Z,11.47
2022-12-19T15:15:45.772Z,10.30
2022-12-19T15:18:21.919Z,11.00
2022-12-19T15:20:50.261Z,10.80
2022-12-19T15:23:21.912Z,11.00
2022-12-19T15:26:07.893Z,12.40
2022-12-19T15:28:40.932Z,9.50
2022-12-19T15:31:19.335Z,10.70
2022-12-19T15:34:23.197Z,10.27
2022-12-19T15:36:35.887Z,9.17
2022-12-19T15:39:04.355Z,10.27
2022-12-19T15:41:32.230Z,11.13
2022-12-19T15:44:04.853Z,9.53
2022-12-19T15:46:33.664Z,10.57
2022-12-19T15:49:02.945Z,9.40
2022-12-19T15:51:30.596Z,10.37
2022-12-19T15:54:15.561Z,9.77
2022-12-19T15:56:50.285Z,9.30
2022-12-19T15:59:34.768Z,9.40
2022-12-19T16:02:15.770Z,9.63
2022-12-19T16:04:46.324Z,9.73
2022-12-19T16:07:16.835Z,8.87
2022-12-19T16:09:44.462Z,9.63
2022-12-19T16:12:15.361Z,10.17
2022-12-19T16:14:43.284Z,10.77
2022-12-19T16:17:22.302Z,8.63
2022-12-19T16:19:52.086Z,9.60
2022-12-19T16:22:22.681Z,9.13
2022-12-19T16:24:50.914Z,8.87
2022-12-19T16:27:23.193Z,9.60
2022-12-19T16:29:51.199Z,8.57
2022-12-19T16:32:19.337Z,9.10
2022-12-19T16:34:48.785Z,9.20
2022-12-19T16:37:17.686Z,9.57
2022-12-19T16:39:45.243Z,10.27
2022-12-19T16:42:16.149Z,8.50
2022-12-19T16:44:45.678Z,8.27
2022-12-19T16:47:15.392Z,8.23
2022-12-19T16:49:43.965Z,9.63
2022-12-19T16:52:11.945Z,10.10
2022-12-19T16:54:40.851Z,9.33
2022-12-19T16:57:19.423Z,9.10
2022-12-19T16:59:47.266Z,8.90
2022-12-19T17:02:39.080Z,10.13
2022-12-19T17:05:08.095Z,9.57
2022-12-19T17:07:36.234Z,9.00
2022-12-19T17:10:05.955Z,12.00
2022-12-19T17:12:33.900Z,9.60
2022-12-19T17:15:01.655Z,9.63
2022-12-19T17:17:29.480Z,9.70
2022-12-19T17:19:57.156Z,10.87
2022-12-19T17:22:24.729Z,10.93
2022-12-19T17:24:52.429Z,9.77
2022-12-19T17:27:23.290Z,8.87
2022-12-19T17:29:50.844Z,9.10
2022-12-19T17:32:23.888Z,8.97
2022-12-19T17:34:52.999Z,8.27
2022-12-19T17:37:20.630Z,8.43
2022-12-19T17:39:48.831Z,8.73
2022-12-19T17:42:21.487Z,8.70
2022-12-19T17:44:50.541Z,9.53
2022-12-19T17:47:20.616Z,10.00
2022-12-19T17:49:49.060Z,9.87
2022-12-19T17:52:20.308Z,10.70
2022-12-19T17:54:48.273Z,8.97
2022-12-19T17:57:17.103Z,9.17
2022-12-19T17:59:46.500Z,10.60
2022-12-19T18:02:29.582Z,9.50
2022-12-19T18:04:58.264Z,9.43
2022-12-19T18:07:25.856Z,9.67
2022-12-19T18:09:53.393Z,10.60
2022-12-19T18:12:21.233Z,10.43
2022-12-19T18:14:49.172Z,9.63
2022-12-19T18:17:22.550Z,9.23
2022-12-19T18:19:51.659Z,8.90
2022-12-19T18:22:19.486Z,8.47
2022-12-19T18:24:47.082Z,9.07
2022-12-19T18:27:14.609Z,9.13
2022-12-19T18:29:42.186Z,8.70
2022-12-19T18:32:17.948Z,8.77
2022-12-19T18:34:45.707Z,10.33
2022-12-19T18:37:16.323Z,10.20
2022-12-19T18:39:43.871Z,9.83
2022-12-19T18:42:20.429Z,10.03
2022-12-19T18:44:48.075Z,9.13
2022-12-19T18:47:22.404Z,9.43
2022-12-19T18:49:52.357Z,8.70
2022-12-19T18:52:21.266Z,9.83
2022-12-19T18:54:48.862Z,8.47
2022-12-19T18:57:16.509Z,11.00
2022-12-19T18:59:44.112Z,9.57
2022-12-19T19:02:26.627Z,9.07
2022-12-19T19:04:55.559Z,10.50
2022-12-19T19:07:24.462Z,8.37
2022-12-19T19:09:52.076Z,8.30
2022-12-19T19:12:36.887Z,8.60
2022-12-19T19:15:04.806Z,9.80
2022-12-19T19:17:32.362Z,10.20
2022-12-19T19:20:00.253Z,8.50
2022-12-19T19:22:29.518Z,11.43
2022-12-19T19:24:58.314Z,9.30
2022-12-19T19:27:26.102Z,10.50
2022-12-19T19:29:53.705Z,10.20
2022-12-19T19:32:21.329Z,8.50
2022-12-19T19:34:50.278Z,9.87
2022-12-19T19:37:18.088Z,10.43
2022-12-19T19:39:47.649Z,9.43
2022-12-19T19:42:15.426Z,8.83
2022-12-19T19:44:46.684Z,9.90
2022-12-19T19:47:15.231Z,10.87
2022-12-19T19:49:42.840Z,9.60
2022-12-19T19:52:11.104Z,8.87
2022-12-19T19:54:38.776Z,9.87
2022-12-19T19:57:08.252Z,7.83
2022-12-19T19:59:35.809Z,8.90
2022-12-19T20:02:03.570Z,10.10
2022-12-19T20:04:31.386Z,9.00
2022-12-19T20:06:59.070Z,10.17
2022-12-19T20:09:26.661Z,8.40
2022-12-19T20:11:54.252Z,11.70
2022-12-19T20:14:23.481Z,10.23
2022-12-19T20:16:51.713Z,10.20
2022-12-19T20:19:19.366Z,10.20
2022-12-19T20:21:47.003Z,9.40
2022-12-19T20:24:14.790Z,8.20
2022-12-19T20:26:42.743Z,9.17
2022-12-19T20:29:11.439Z,11.77
2022-12-19T20:31:40.629Z,10.17
2022-12-19T20:34:09.684Z,11.40
2022-12-19T20:36:37.998Z,9.57
2022-12-19T20:39:06.308Z,9.80
2022-12-19T20:41:34.532Z,8.77
2022-12-19T20:44:02.680Z,9.50
2022-12-19T20:46:30.320Z,8.53
2022-12-19T20:48:59.516Z,9.83
2022-12-19T20:51:27.574Z,8.73
2022-12-19T20:53:55.432Z,10.23
2022-12-19T20:56:25.701Z,9.63
2022-12-19T20:58:53.547Z,9.20
2022-12-19T21:01:23.324Z,8.97
2022-12-19T21:03:52.730Z,7.87
2022-12-19T21:06:25.196Z,9.33
2022-12-19T21:08:52.875Z,9.30
2022-12-19T21:11:20.577Z,9.70
2022-12-19T21:13:48.156Z,8.73
2022-12-19T21:16:17.686Z,9.63
2022-12-19T21:18:46.784Z,10.37
2022-12-19T21:21:16.519Z,8.60
2022-12-19T21:23:45.547Z,10.10
2022-12-19T21:26:13.203Z,8.70
2022-12-19T21:28:41.653Z,9.63
2022-12-19T21:31:14.545Z,8.70
2022-12-19T21:33:42.276Z,10.63
2022-12-19T21:36:12.389Z,9.70
2022-12-19T21:38:40.660Z,8.73
2022-12-19T21:41:09.778Z,9.23
2022-12-19T21:43:37.816Z,8.30
2022-12-19T21:46:08.617Z,9.37
2022-12-19T21:48:38.314Z,9.97
2022-12-19T21:51:06.791Z,9.30
2022-12-19T21:53:35.420Z,8.60
2022-12-19T21:56:05.193Z,10.30
2022-12-19T21:58:34.592Z,8.00
2022-12-19T22:01:09.599Z,8.33
2022-12-19T22:03:37.605Z,7.67
2022-12-19T22:06:06.111Z,8.93
2022-12-19T22:08:33.791Z,9.03
2022-12-19T22:11:01.946Z,8.27
2022-12-19T22:13:29.988Z,10.17
2022-12-19T22:16:02.518Z,8.40
2022-12-19T22:18:30.176Z,9.57
2022-12-19T22:20:59.619Z,9.40
2022-12-19T22:23:27.766Z,9.00
2022-12-19T22:26:03.387Z,8.83
2022-12-19T22:28:32.232Z,8.03
2022-12-19T22:31:01.285Z,9.20
2022-12-19T22:33:29.548Z,9.10
2022-12-19T22:35:57.214Z,8.23
2022-12-19T22:38:24.801Z,9.07
2022-12-19T22:40:52.774Z,10.30
2022-12-19T22:43:20.607Z,7.70
2022-12-19T22:45:48.213Z,7.60
2022-12-19T22:48:17.170Z,9.63
2022-12-19T22:50:47.402Z,9.03
2022-12-19T22:53:15.361Z,8.27
2022-12-19T22:55:44.429Z,8.73
2022-12-19T22:58:12.047Z,8.70
2022-12-19T23:00:39.625Z,8.17
2022-12-19T23:03:07.635Z,10.10
2022-12-19T23:05:37.844Z,7.80
2022-12-19T23:08:05.934Z,9.27
2022-12-19T23:10:33.506Z,9.50
2022-12-19T23:13:01.066Z,8.63
2022-12-19T23:15:28.591Z,8.43
2022-12-19T23:17:56.149Z,8.43
2022-12-19T23:20:23.702Z,9.37
2022-12-19T23:22:52.915Z,8.30
2022-12-19T23:25:20.551Z,10.90
2022-12-19T23:27:48.094Z,8.60
2022-12-19T23:30:15.848Z,8.60
2022-12-19T23:32:50.333Z,9.50
2022-12-19T23:35:18.564Z,9.27
2022-12-19T23:37:46.377Z,9.07
2022-12-19T23:40:15.525Z,9.33
2022-12-19T23:42:43.224Z,8.77
2022-12-19T23:45:12.160Z,9.03
2022-12-19T23:47:40.096Z,8.43
2022-12-19T23:50:09.127Z,7.90
2022-12-19T23:52:36.682Z,9.50
2022-12-19T23:55:04.556Z,9.17
2022-12-19T23:57:33.543Z,9.30
